Time;durP1;ratioP1;P1;durP2;ratioP2;P2;SDS_P1;SDS_P2;PMS_P1;PMS_P2;Temp;Humidity;BMP_temperature;BMP_pressure;BME280_temperature;BME280_humidity;BME280_pressure;Samples;Min_cycle;Max_cycle;Signal;HPM_P1;HPM_P2
2022/04/30 00:00:16;;;;;;;11.10;9.93;;;;;;;13.89;56.42;95369.63;4972903;28;20038;-77
2022/04/30 00:02:41;;;;;;;9.85;8.75;;;;;;;13.89;56.04;95370.41;4956611;28;20121;-78
2022/04/30 00:05:07;;;;;;;18.73;8.65;;;;;;;13.88;56.33;95371.44;4956211;28;20138;-77
2022/04/30 00:07:33;;;;;;;11.25;8.32;;;;;;;13.85;56.36;95364.09;4956184;28;20035;-77
2022/04/30 00:09:58;;;;;;;13.48;8.98;;;;;;;13.81;56.06;95366.38;4955837;28;20047;-77
2022/04/30 00:12:25;;;;;;;10.77;8.95;;;;;;;13.78;56.43;95366.06;4939148;28;20031;-76
2022/04/30 00:14:50;;;;;;;9.95;8.80;;;;;;;13.73;56.58;95361.53;4973246;28;20659;-77
2022/04/30 00:17:16;;;;;;;10.60;8.70;;;;;;;13.67;56.51;95367.72;4955568;28;20074;-77
2022/04/30 00:19:41;;;;;;;10.93;8.65;;;;;;;13.60;56.69;95361.84;4955781;28;20093;-77
2022/04/30 00:22:08;;;;;;;9.35;8.40;;;;;;;13.56;56.56;95370.41;4955996;28;20038;-77
2022/04/30 00:24:35;;;;;;;11.00;9.00;;;;;;;13.56;56.65;95370.41;4955660;28;20229;-77
2022/04/30 00:27:01;;;;;;;12.43;8.60;;;;;;;13.49;57.34;95371.34;4955495;28;20530;-77
2022/04/30 00:29:30;;;;;;;13.00;9.35;;;;;;;13.44;57.10;95362.63;4970611;28;20170;-77
2022/04/30 00:31:56;;;;;;;10.82;8.35;;;;;;;13.39;57.33;95365.16;4971854;28;20054;-77
2022/04/30 00:34:22;;;;;;;11.65;8.77;;;;;;;13.33;57.79;95371.31;4971258;28;20105;-77
2022/04/30 00:36:47;;;;;;;10.98;8.60;;;;;;;13.33;57.58;95366.09;4954872;28;20482;-77
2022/04/30 00:39:13;;;;;;;10.00;8.48;;;;;;;13.34;57.24;95367.66;4955379;28;20038;-77
2022/04/30 00:41:45;;;;;;;10.35;9.27;;;;;;;13.33;57.15;95366.09;4972855;28;20491;-77
2022/04/30 00:44:16;;;;;;;11.13;8.18;;;;;;;13.26;57.13;95366.25;4955174;28;20066;-77
2022/04/30 00:46:41;;;;;;;10.82;8.50;;;;;;;13.17;57.50;95373.63;4955457;28;20045;-77
2022/04/30 00:49:08;;;;;;;9.07;8.05;;;;;;;13.13;57.85;95367.28;4955476;28;20038;-77
2022/04/30 00:51:34;;;;;;;10.13;8.10;;;;;;;13.06;58.06;95366.66;4971315;28;20035;-78
2022/04/30 00:53:59;;;;;;;13.70;8.30;;;;;;;13.05;57.61;95359.84;4955674;28;20093;-78
2022/04/30 00:56:32;;;;;;;9.45;8.43;;;;;;;13.03;57.98;95359.28;4971545;28;20098;-77
2022/04/30 00:59:00;;;;;;;9.68;8.18;;;;;;;13.04;57.98;95353.03;4957050;28;20072;-77
2022/04/30 01:01:25;;;;;;;9.23;7.97;;;;;;;13.02;58.19;95351.69;4939317;28;20047;-77
2022/04/30 01:03:51;;;;;;;9.70;8.13;;;;;;;12.93;58.25;95356.47;4974126;28;20438;-77
2022/04/30 01:06:18;;;;;;;8.85;7.95;;;;;;;12.90;58.51;95356.94;4971473;28;20069;-77
2022/04/30 01:08:44;;;;;;;9.60;7.93;;;;;;;12.89;58.49;95360.59;4971419;28;20038;-77
2022/04/30 01:11:09;;;;;;;12.65;7.95;;;;;;;12.89;58.52;95350.94;4970499;28;20033;-77
2022/04/30 01:13:36;;;;;;;15.60;8.30;;;;;;;12.84;58.65;95358.66;4979511;23;20045;-77
2022/04/30 01:16:02;;;;;;;9.52;8.07;;;;;;;12.92;59.00;95354.88;4991684;28;20100;-77
2022/04/30 01:18:28;;;;;;;8.65;7.90;;;;;;;12.97;59.45;95357.59;4991899;28;20038;-77
2022/04/30 01:20:59;;;;;;;8.98;8.07;;;;;;;13.00;58.61;95349.28;4959132;28;20093;-78
2022/04/30 01:23:24;;;;;;;9.00;8.10;;;;;;;13.00;58.64;95351.88;4990983;28;20046;-77
2022/04/30 01:25:50;;;;;;;8.65;7.75;;;;;;;12.98;58.55;95353.94;4990420;28;20480;-77
2022/04/30 01:28:15;;;;;;;9.20;8.27;;;;;;;12.92;58.67;95350.47;4990339;28;20034;-77
2022/04/30 01:30:41;;;;;;;8.70;7.90;;;;;;;12.94;58.82;95352.84;4973335;28;20050;-77
2022/04/30 01:38:34;;;;;;;10.15;8.63;;;;;;;12.82;59.26;95355.47;4975852;28;20061;-76
2022/04/30 01:41:00;;;;;;;20.52;9.52;;;;;;;12.80;59.06;95359.34;4991554;28;20022;-77
2022/04/30 01:43:26;;;;;;;15.63;10.55;;;;;;;12.76;59.41;95353.81;4990136;28;20054;-77
2022/04/30 01:45:52;;;;;;;20.48;10.70;;;;;;;12.71;59.57;95355.53;4989425;28;20034;-76
2022/04/30 01:48:18;;;;;;;15.65;10.95;;;;;;;12.73;59.78;95345.66;4957993;28;20049;-77
2022/04/30 01:50:43;;;;;;;26.40;13.98;;;;;;;12.68;59.45;95348.16;5006082;28;20042;-77
2022/04/30 01:53:09;;;;;;;55.42;20.83;;;;;;;12.62;60.17;95350.66;4957167;28;20038;-77
2022/04/30 01:55:36;;;;;;;88.55;30.13;;;;;;;12.58;60.46;95343.53;4973905;28;20053;-77
2022/04/30 01:58:01;;;;;;;78.60;29.55;;;;;;;12.52;60.63;95344.44;4988366;28;20050;-76
2022/04/30 02:00:26;;;;;;;79.75;26.05;;;;;;;12.43;60.69;95344.03;4991013;28;20026;-76
2022/04/30 02:02:54;;;;;;;49.45;20.42;;;;;;;12.36;60.99;95345.94;4991139;28;20138;-76
2022/04/30 02:05:19;;;;;;;59.00;21.90;;;;;;;12.30;61.25;95346.88;4973255;28;20062;-76
2022/04/30 02:08:03;;;;;;;118.57;36.67;;;;;;;12.33;61.43;95343.78;4990942;28;20165;-76
2022/04/30 02:10:28;;;;;;;106.63;35.60;;;;;;;12.34;61.66;95353.19;4990322;28;20042;-76
2022/04/30 02:12:54;;;;;;;97.88;35.53;;;;;;;12.35;61.33;95346.97;4989857;28;20042;-77
2022/04/30 02:15:20;;;;;;;90.25;30.00;;;;;;;12.32;61.35;95352.63;4988930;28;20100;-76
2022/04/30 02:17:46;;;;;;;89.35;30.45;;;;;;;12.31;61.53;95349.25;4990936;28;20124;-78
2022/04/30 02:20:18;;;;;;;87.75;30.25;;;;;;;12.34;61.24;95353.19;4989261;28;20046;-77
2022/04/30 02:22:44;;;;;;;86.95;29.33;;;;;;;12.29;61.64;95342.69;4974316;28;20034;-77
2022/04/30 02:25:39;;;;;;;59.40;22.30;;;;;;;12.28;61.55;95348.91;4989425;28;20042;-77
2022/04/30 02:28:08;;;;;;;45.80;18.25;;;;;;;12.27;61.31;95348.13;5118321;23;20046;-77
2022/04/30 02:30:38;;;;;;;35.03;15.88;;;;;;;12.26;61.14;95350.97;5010793;28;20041;-77
2022/04/30 02:33:10;;;;;;;21.00;12.63;;;;;;;12.28;60.88;95344.50;5010869;28;20033;-77
2022/04/30 02:35:37;;;;;;;;;;;;;;;12.20;61.46;95346.63;4992424;28;20656;-77
2022/04/30 02:38:05;;;;;;;18.95;13.27;;;;;;;12.15;61.64;95333.50;5010142;28;19917;-77
2022/04/30 02:40:33;;;;;;;27.83;14.63;;;;;;;12.16;61.83;95341.09;4978395;23;20057;-77
2022/04/30 02:43:06;;;;;;;37.67;18.88;;;;;;;12.10;62.24;95347.22;4989385;28;21019;-76
2022/04/30 02:45:32;;;;;;;82.53;32.25;;;;;;;12.10;62.43;95341.22;4990629;28;20038;-77
2022/04/30 02:47:57;;;;;;;56.30;22.98;;;;;;;12.03;62.32;95342.13;4973530;28;20057;-77
2022/04/30 02:50:23;;;;;;;58.05;21.75;;;;;;;12.02;62.37;95344.94;4973012;28;20080;-77
2022/04/30 02:52:49;;;;;;;51.25;20.60;;;;;;;12.02;62.37;95337.94;4989088;28;20112;-76
2022/04/30 02:55:15;;;;;;;62.75;24.27;;;;;;;11.95;62.46;95329.44;5010530;23;20054;-77
2022/04/30 02:59:53;;;;;;;102.15;34.13;;;;;;;11.87;62.26;95331.59;4990032;28;20407;-77
2022/04/30 03:00:29;;;;;;;108.80;36.63;;;;;;;11.84;63.03;95335.44;4989298;28;20097;-77
2022/04/30 03:03:19;;;;;;;114.10;39.25;;;;;;;11.74;63.07;95337.81;4989059;28;20038;-76
2022/04/30 03:05:45;;;;;;;88.00;29.00;;;;;;;11.71;63.40;95333.00;4996667;28;20057;-77
2022/04/30 03:08:12;;;;;;;52.80;20.02;;;;;;;11.69;62.95;95337.66;4999588;28;20030;-76
2022/04/30 03:10:42;;;;;;;47.13;19.10;;;;;;;11.63;63.41;95331.56;4998562;28;20034;-77
2022/04/30 03:13:07;;;;;;;54.45;24.67;;;;;;;11.63;63.32;95330.75;4990140;28;20141;-77
2022/04/30 03:15:33;;;;;;;51.60;20.40;;;;;;;11.62;63.37;95327.38;5006491;28;20505;-76
2022/04/30 03:23:44;;;;;;;39.05;18.67;;;;;;;11.49;63.74;95335.38;4950448;28;20581;-76
2022/04/30 03:26:10;;;;;;;45.85;19.50;;;;;;;11.46;63.85;95330.63;5005419;23;20053;-77
2022/04/30 03:28:40;;;;;;;40.65;19.60;;;;;;;11.37;63.80;95326.75;4997464;28;20045;-77
2022/04/30 03:31:06;;;;;;;47.63;21.35;;;;;;;11.38;63.99;95336.94;4989824;28;20039;-77
2022/04/30 03:33:31;;;;;;;64.03;25.05;;;;;;;11.33;64.32;95336.81;4989787;28;20125;-77
2022/04/30 03:35:57;;;;;;;75.78;27.58;;;;;;;11.36;64.09;95346.78;4988986;28;20026;-77
2022/04/30 03:38:22;;;;;;;86.07;29.33;;;;;;;11.39;63.85;95350.78;5004684;28;20463;-77
2022/04/30 03:40:48;;;;;;;74.88;27.42;;;;;;;11.39;63.57;95345.56;4988398;28;20053;-77
2022/04/30 03:43:15;;;;;;;56.90;21.00;;;;;;;11.37;63.85;95353.56;4972446;28;20446;-77
2022/04/30 03:45:41;;;;;;;36.35;19.90;;;;;;;11.39;63.95;95351.56;4989715;28;20019;-77
2022/04/30 03:48:07;;;;;;;28.75;16.30;;;;;;;11.40;64.01;95353.16;4988271;28;20114;-78
2022/04/30 03:50:32;;;;;;;31.98;18.40;;;;;;;11.46;63.85;95361.09;5004705;28;20034;-77
2022/04/30 03:52:58;;;;;;;30.85;18.17;;;;;;;11.58;63.81;95357.50;4986182;28;20363;-77
2022/04/30 03:55:23;;;;;;;44.78;20.42;;;;;;;11.65;63.52;95354.78;4990289;28;20045;-76
2022/04/30 03:57:49;;;;;;;41.47;19.90;;;;;;;11.79;62.93;95350.97;4991967;28;20037;-77
2022/04/30 04:00:15;;;;;;;58.35;22.70;;;;;;;11.89;62.72;95350.41;4990426;28;20042;-77
2022/04/30 04:02:41;;;;;;;53.55;24.15;;;;;;;12.01;62.28;95351.19;4989856;28;20543;-77
2022/04/30 04:05:13;;;;;;;41.85;21.33;;;;;;;12.18;61.87;95353.91;4988794;28;20383;-77
2022/04/30 04:07:42;;;;;;;72.05;27.73;;;;;;;12.56;61.27;95346.38;4980049;28;20034;-77
2022/04/30 04:10:09;;;;;;;64.45;28.45;;;;;;;13.66;58.14;95349.66;4987791;28;20038;-77
2022/04/30 04:12:36;;;;;;;67.20;27.75;;;;;;;14.79;54.76;95353.59;4972259;28;20038;-77
2022/04/30 04:17:45;;;;;;;47.83;22.25;;;;;;;17.05;48.13;95350.53;4990709;28;20565;-77
2022/04/30 04:20:17;;;;;;;39.70;19.42;;;;;;;17.93;45.71;95345.94;4992478;28;20042;-77
2022/04/30 04:22:43;;;;;;;;;;;;;;;18.22;44.61;95350.63;4976471;28;20391;-77
2022/04/30 04:27:55;;;;;;;36.90;17.67;;;;;;;17.63;45.73;95359.06;4991394;28;20064;-77
2022/04/30 04:30:22;;;;;;;37.80;18.38;;;;;;;18.39;44.08;95353.78;4975198;28;20469;-77
2022/04/30 04:32:48;;;;;;;30.58;16.02;;;;;;;19.07;42.47;95359.34;4974949;28;20125;-77
2022/04/30 04:35:14;;;;;;;25.55;13.32;;;;;;;19.03;41.96;95357.50;4966048;28;20111;-77
2022/04/30 04:37:41;;;;;;;34.83;12.85;;;;;;;19.21;41.90;95356.13;4992181;28;20042;-77
2022/04/30 04:40:07;;;;;;;18.38;13.48;;;;;;;20.33;39.67;95346.25;4975020;28;20954;-77
2022/04/30 04:42:33;;;;;;;142.60;47.45;;;;;;;20.72;38.67;95347.22;4990879;28;20514;-78
2022/04/30 04:44:58;;;;;;;73.80;27.60;;;;;;;20.77;38.64;95355.06;4975196;28;20049;-78
2022/04/30 04:47:24;;;;;;;48.75;20.33;;;;;;;21.80;36.44;95350.78;4990284;28;20088;-78
2022/04/30 04:49:49;;;;;;;52.00;20.88;;;;;;;22.95;33.86;95348.25;4991080;28;20042;-77
2022/04/30 04:52:15;;;;;;;56.45;20.88;;;;;;;22.72;34.57;95350.75;4991482;28;20030;-78
2022/04/30 04:54:40;;;;;;;37.70;17.45;;;;;;;21.93;35.53;95355.31;4991301;28;20042;-77
2022/04/30 04:57:06;;;;;;;19.48;12.30;;;;;;;21.15;36.81;95362.03;4981189;28;20031;-78
2022/04/30 04:59:31;;;;;;;23.75;12.15;;;;;;;20.59;38.17;95356.59;4990868;28;20043;-78
2022/04/30 05:01:57;;;;;;;19.42;11.02;;;;;;;20.17;38.96;95358.03;4992167;28;20494;-77
2022/04/30 05:04:24;;;;;;;21.40;11.25;;;;;;;19.80;39.73;95363.91;4974001;28;20038;-77
2022/04/30 05:06:51;;;;;;;22.98;12.25;;;;;;;19.70;39.95;95364.78;4990830;28;20049;-78
2022/04/30 05:09:17;;;;;;;17.77;11.00;;;;;;;19.61;40.32;95366.44;4994494;28;20521;-78
2022/04/30 05:11:42;;;;;;;15.85;11.52;;;;;;;19.43;40.68;95373.09;4990742;28;20062;-78
2022/04/30 05:14:08;;;;;;;15.00;11.05;;;;;;;19.41;40.52;95366.53;4990663;28;21043;-78
2022/04/30 05:16:34;;;;;;;17.80;10.82;;;;;;;19.69;40.34;95367.72;4991145;28;20042;-78
2022/04/30 05:18:59;;;;;;;17.95;10.55;;;;;;;20.02;40.09;95359.00;4974602;28;20042;-77
2022/04/30 05:21:25;;;;;;;17.27;10.32;;;;;;;21.47;37.55;95369.25;4994194;28;20030;-78
2022/04/30 05:23:51;;;;;;;23.75;11.20;;;;;;;24.12;32.94;95369.53;4994818;28;20418;-78
2022/04/30 05:26:16;;;;;;;17.17;10.20;;;;;;;25.77;30.08;95355.66;4993716;28;20026;-78
2022/04/30 05:28:42;;;;;;;18.08;10.32;;;;;;;27.19;27.97;95360.75;4991338;28;20057;-78
2022/04/30 05:31:07;;;;;;;16.48;9.38;;;;;;;28.04;26.82;95361.19;4993494;28;20033;-78
2022/04/30 05:33:35;;;;;;;15.60;10.38;;;;;;;27.71;26.92;95363.06;4975630;28;20104;-78
2022/04/30 05:36:01;;;;;;;13.45;10.05;;;;;;;27.47;27.13;95359.09;4990037;28;20511;-78
2022/04/30 05:38:27;;;;;;;19.80;10.80;;;;;;;28.03;25.86;95358.84;4990594;28;20027;-78
2022/04/30 05:40:52;;;;;;;16.35;11.80;;;;;;;29.12;25.04;95358.22;4992795;28;20145;-78
2022/04/30 05:43:17;;;;;;;19.92;11.65;;;;;;;30.66;23.53;95357.94;4992565;28;20034;-79
2022/04/30 05:45:43;;;;;;;20.83;11.40;;;;;;;31.05;22.54;95356.16;4995877;28;20050;-79
2022/04/30 05:48:09;;;;;;;17.88;11.60;;;;;;;31.00;22.79;95359.91;4994607;28;20036;-78
2022/04/30 05:50:34;;;;;;;22.98;10.57;;;;;;;30.97;22.99;95357.94;4961126;28;20034;-79
2022/04/30 05:53:00;;;;;;;20.63;10.35;;;;;;;30.76;22.86;95365.50;4978378;28;20120;-78
2022/04/30 05:55:25;;;;;;;17.20;9.80;;;;;;;31.00;22.11;95359.91;4993613;28;20081;-77
2022/04/30 05:57:51;;;;;;;18.73;9.63;;;;;;;32.31;21.28;95360.34;4991935;28;20486;-78
2022/04/30 06:00:16;;;;;;;13.93;9.25;;;;;;;33.12;20.55;95361.72;4992688;28;20030;-78
2022/04/30 06:02:42;;;;;;;9.65;8.25;;;;;;;33.80;19.15;95369.97;4992805;28;20034;-78
2022/04/30 06:05:08;;;;;;;10.43;6.97;;;;;;;32.72;19.29;95369.53;4992477;28;20592;-78
2022/04/30 06:07:34;;;;;;;11.45;7.20;;;;;;;29.80;22.38;95363.72;4994201;28;20038;-78
2022/04/30 06:09:59;;;;;;;11.02;7.63;;;;;;;27.90;24.47;95366.03;4993748;28;20165;-78
2022/04/30 06:12:25;;;;;;;10.45;8.88;;;;;;;26.25;27.18;95368.75;4977502;28;20509;-77
2022/04/30 06:14:50;;;;;;;10.20;8.73;;;;;;;24.63;29.58;95369.03;4991741;28;20034;-78
2022/04/30 06:17:15;;;;;;;12.52;8.70;;;;;;;24.79;29.64;95372.06;4973872;28;20054;-77
2022/04/30 06:19:41;;;;;;;9.60;8.70;;;;;;;23.21;31.77;95373.16;4990251;28;20033;-77
2022/04/30 06:22:07;;;;;;;9.63;8.63;;;;;;;22.67;32.95;95368.66;4989804;28;20038;-77
2022/04/30 06:24:33;;;;;;;12.93;8.88;;;;;;;22.98;32.09;95374.97;4974669;28;20038;-77
2022/04/30 06:26:59;;;;;;;9.38;8.48;;;;;;;22.74;32.69;95364.50;4974612;28;20494;-78
2022/04/30 06:29:24;;;;;;;10.43;8.27;;;;;;;23.25;31.82;95374.13;4990549;28;20042;-77
2022/04/30 06:31:52;;;;;;;10.52;7.80;;;;;;;23.68;31.44;95381.72;4990190;28;20035;-78
2022/04/30 06:34:19;;;;;;;9.57;8.68;;;;;;;24.23;30.99;95360.97;4976703;28;20304;-77
2022/04/30 06:36:44;;;;;;;10.48;7.70;;;;;;;24.70;30.10;95357.94;4966715;28;20049;-77
2022/04/30 06:39:10;;;;;;;9.15;8.07;;;;;;;24.93;29.86;95367.41;4989706;28;20035;-78
2022/04/30 06:41:35;;;;;;;10.35;9.10;;;;;;;23.98;31.14;95366.16;4991328;28;20410;-77
2022/04/30 06:44:01;;;;;;;12.73;8.15;;;;;;;23.38;32.19;95363.78;4990412;28;20026;-77
2022/04/30 06:46:26;;;;;;;8.75;7.97;;;;;;;23.54;32.38;95365.00;4973613;28;20434;-77
2022/04/30 06:48:52;;;;;;;12.63;8.90;;;;;;;23.68;31.50;95367.66;4991204;28;20053;-77
2022/04/30 06:51:18;;;;;;;20.80;8.93;;;;;;;23.17;32.67;95356.25;4983333;28;20030;-77
2022/04/30 06:59:12;;;;;;;13.35;9.35;;;;;;;21.34;35.37;95359.41;4989542;28;20112;-77
2022/04/30 07:04:06;;;;;;;18.63;9.57;;;;;;;20.61;36.96;95354.47;4991750;28;20042;-76
2022/04/30 07:06:32;;;;;;;14.38;9.38;;;;;;;20.92;36.58;95358.31;4977501;28;20042;-78
2022/04/30 07:08:58;;;;;;;10.45;9.43;;;;;;;21.49;35.66;95369.78;4974855;28;20042;-76
2022/04/30 07:11:24;;;;;;;11.65;9.70;;;;;;;21.65;34.78;95358.97;4989854;28;20572;-76
2022/04/30 07:13:49;;;;;;;16.00;9.55;;;;;;;22.09;34.34;95348.72;4988407;28;20057;-76
2022/04/30 07:16:15;;;;;;;13.07;9.27;;;;;;;22.47;33.23;95359.22;4990307;28;20079;-76
2022/04/30 07:18:40;;;;;;;14.65;8.93;;;;;;;22.22;33.68;95346.41;4988910;28;20486;-75
2022/04/30 07:21:06;;;;;;;11.45;9.80;;;;;;;22.24;32.94;95355.63;4971633;28;20411;-76
2022/04/30 07:23:31;;;;;;;11.40;9.85;;;;;;;21.86;33.74;95352.28;4988567;28;20037;-76
2022/04/30 07:25:57;;;;;;;11.45;9.93;;;;;;;21.91;33.46;95362.78;4988001;28;20054;-77
2022/04/30 07:28:23;;;;;;;10.82;9.55;;;;;;;21.55;34.06;95365.19;4990037;28;20042;-78
2022/04/30 07:30:49;;;;;;;15.35;9.38;;;;;;;21.03;35.06;95363.50;4989368;28;20432;-77
2022/04/30 07:33:15;;;;;;;12.60;9.10;;;;;;;20.90;35.34;95354.41;4991058;28;20049;-77
2022/04/30 07:35:40;;;;;;;15.38;9.50;;;;;;;21.42;34.79;95356.09;4990492;28;20049;-76
2022/04/30 07:38:06;;;;;;;11.63;9.15;;;;;;;21.27;34.22;95356.31;4989120;28;20038;-77
2022/04/30 07:40:31;;;;;;;13.15;10.18;;;;;;;20.56;35.57;95349.25;5001017;23;20071;-77
2022/04/30 07:42:57;;;;;;;12.73;9.70;;;;;;;21.02;35.20;95356.63;4990574;28;20039;-77
2022/04/30 07:45:23;;;;;;;9.85;8.60;;;;;;;21.00;35.18;95345.56;4991562;28;20030;-77
2022/04/30 07:47:48;;;;;;;19.38;8.80;;;;;;;20.65;36.18;95344.91;4992161;28;20531;-77
2022/04/30 07:50:16;;;;;;;14.98;8.50;;;;;;;19.75;38.05;95341.00;4958763;28;20512;-78
2022/04/30 07:52:41;;;;;;;14.73;8.93;;;;;;;19.35;38.78;95351.78;4989092;28;20069;-78
2022/04/30 07:55:07;;;;;;;13.45;8.15;;;;;;;19.68;38.01;95345.78;4994323;28;20038;-78
2022/04/30 07:57:32;;;;;;;11.05;7.80;;;;;;;20.12;37.37;95350.19;4976351;28;20490;-78
2022/04/30 07:59:58;;;;;;;15.43;7.90;;;;;;;20.36;36.49;95335.16;4975513;28;20039;-77
2022/04/30 08:02:24;;;;;;;11.75;9.07;;;;;;;20.64;35.83;95345.97;4984622;28;20034;-78
2022/04/30 08:04:49;;;;;;;17.95;9.18;;;;;;;19.61;37.92;95340.03;5130070;23;20067;-78
2022/04/30 08:07:14;;;;;;;11.30;9.10;;;;;;;19.46;38.17;95342.75;4994232;28;20046;-78
2022/04/30 08:09:40;;;;;;;10.55;8.15;;;;;;;19.46;38.24;95337.47;4994502;28;20123;-78
2022/04/30 08:12:06;;;;;;;11.98;8.63;;;;;;;19.79;38.38;95335.94;4991083;28;20027;-76
2022/04/30 08:14:31;;;;;;;18.42;9.68;;;;;;;19.65;37.50;95341.06;4991747;28;20031;-76
2022/04/30 08:16:57;;;;;;;10.88;8.55;;;;;;;18.85;38.93;95332.53;4992180;28;20033;-76
2022/04/30 08:19:22;;;;;;;12.68;9.63;;;;;;;18.74;39.87;95346.84;4991439;28;20057;-76
2022/04/30 08:21:48;;;;;;;14.68;9.63;;;;;;;18.74;39.60;95344.22;4990415;28;20422;-75
2022/04/30 08:24:14;;;;;;;13.10;9.55;;;;;;;18.74;39.68;95341.56;4992228;28;20035;-76
2022/04/30 08:26:46;;;;;;;12.45;8.05;;;;;;;18.83;40.29;95346.00;4974513;28;20080;-76
2022/04/30 08:29:47;;;;;;;23.13;8.23;;;;;;;18.64;40.93;95341.59;4988757;28;20057;-75
2022/04/30 08:32:14;;;;;;;8.10;7.30;;;;;;;18.67;40.76;95343.69;4941314;29;20047;-75
2022/04/30 08:34:54;;;;;;;9.85;7.22;;;;;;;18.27;41.86;95337.47;4941513;29;20564;-76
2022/04/30 08:37:22;;;;;;;7.40;6.68;;;;;;;18.23;41.43;95331.97;4915622;29;20099;-75
2022/04/30 08:39:49;;;;;;;8.75;7.45;;;;;;;17.94;42.55;95329.09;4915212;29;20039;-76
2022/04/30 08:42:42;;;;;;;10.48;7.13;;;;;;;18.07;42.65;95334.88;4916009;29;20093;-77
2022/04/30 08:45:11;;;;;;;14.38;7.13;;;;;;;17.85;43.13;95324.63;4888768;29;20066;-76
2022/04/30 08:47:50;;;;;;;8.10;7.30;;;;;;;17.85;43.09;95325.41;4883333;29;20039;-76
2022/04/30 08:50:16;;;;;;;9.30;6.93;;;;;;;17.86;43.66;95332.25;4930461;29;20191;-76
2022/04/30 08:52:41;;;;;;;7.95;7.22;;;;;;;18.26;43.00;95330.63;4930685;29;20032;-76
2022/04/30 08:55:09;;;;;;;11.63;6.93;;;;;;;18.18;42.59;95328.53;4898980;29;20126;-76
2022/04/30 08:57:35;;;;;;;8.25;7.45;;;;;;;18.03;42.70;95325.91;4907549;29;20070;-76
2022/04/30 09:00:00;;;;;;;9.60;6.97;;;;;;;17.99;43.07;95326.47;4914528;29;20039;-76
2022/04/30 09:02:26;;;;;;;11.70;7.45;;;;;;;17.59;43.69;95323.84;4914063;29;20044;-76
2022/04/30 09:04:52;;;;;;;9.90;8.27;;;;;;;17.12;44.72;95321.41;4929920;29;20036;-76
2022/04/30 09:07:20;;;;;;;16.23;7.82;;;;;;;16.89;45.81;95327.91;4914282;29;20193;-76
2022/04/30 09:09:58;;;;;;;8.07;6.90;;;;;;;17.22;44.99;95318.78;4929610;29;20091;-76
2022/04/30 09:12:25;;;;;;;8.55;6.05;;;;;;;17.66;45.29;95311.97;4897556;29;20043;-76
2022/04/30 09:14:52;;;;;;;9.90;5.43;;;;;;;17.70;43.99;95317.53;4899798;29;20047;-76
2022/04/30 09:17:18;;;;;;;8.52;6.05;;;;;;;17.67;43.64;95305.66;4940599;29;20043;-76
2022/04/30 09:19:56;;;;;;;12.07;6.15;;;;;;;17.57;43.81;95312.75;4941126;29;20055;-76
2022/04/30 09:22:38;;;;;;;6.30;5.70;;;;;;;17.76;42.60;95311.22;4924815;29;20047;-76
2022/04/30 09:25:11;;;;;;;15.63;6.50;;;;;;;17.76;43.06;95308.59;4925380;29;20126;-76
2022/04/30 09:27:48;;;;;;;9.82;6.90;;;;;;;17.75;42.84;95309.66;4939978;29;20483;-76
2022/04/30 09:30:32;;;;;;;7.45;6.50;;;;;;;17.85;42.35;95299.09;4991480;28;20030;-76
2022/04/30 09:33:03;;;;;;;9.50;6.20;;;;;;;17.64;43.15;95302.78;4990526;28;20069;-76
2022/04/30 09:38:14;;;;;;;6.10;5.47;;;;;;;17.35;43.43;95311.19;4990363;28;20057;-76
2022/04/30 09:40:40;;;;;;;25.60;5.35;;;;;;;17.12;43.89;95306.44;4991349;28;20046;-76
2022/04/30 09:43:14;;;;;;;9.55;5.32;;;;;;;16.61;44.94;95306.25;4974083;28;20037;-76
2022/04/30 09:45:40;;;;;;;13.05;5.90;;;;;;;16.34;45.41;95311.66;4989620;28;20026;-76
2022/04/30 09:53:57;;;;;;;8.90;4.80;;;;;;;16.33;44.47;95299.56;5001075;28;20069;-76
2022/04/30 09:56:38;;;;;;;8.32;4.03;;;;;;;16.30;45.04;95294.06;5001030;28;20038;-75
2022/04/30 09:59:13;;;;;;;5.53;4.60;;;;;;;16.50;44.52;95296.75;5000795;28;20057;-76
2022/04/30 10:01:40;;;;;;;4.75;4.38;;;;;;;16.46;44.11;95287.81;4999522;28;20030;-76
2022/04/30 10:04:08;;;;;;;3.88;3.58;;;;;;;16.50;42.92;95286.25;5001043;28;20516;-76
2022/04/30 10:06:34;;;;;;;8.55;3.60;;;;;;;16.57;42.48;95278.91;4999535;28;20034;-76
2022/04/30 10:09:00;;;;;;;3.72;3.53;;;;;;;16.66;42.74;95277.38;5014490;28;20057;-76
2022/04/30 10:11:54;;;;;;;9.40;4.00;;;;;;;16.56;43.35;95273.94;4983219;28;20109;-76
2022/04/30 10:14:54;;;;;;;3.95;3.60;;;;;;;16.70;42.21;95267.97;4999084;28;20034;-76
2022/04/30 10:17:25;;;;;;;5.53;3.60;;;;;;;16.68;42.35;95267.44;4994721;28;20051;-76
2022/04/30 10:22:57;;;;;;;4.10;3.70;;;;;;;16.88;41.29;95252.78;4986354;28;20133;-76
2022/04/30 10:25:41;;;;;;;3.78;3.47;;;;;;;17.04;41.49;95246.50;4996004;28;20375;-75
2022/04/30 10:28:19;;;;;;;4.20;3.33;;;;;;;17.20;41.14;95248.09;5014044;28;20035;-76
2022/04/30 10:31:00;;;;;;;4.07;3.67;;;;;;;17.13;41.12;95252.81;5000990;28;20034;-79
2022/04/30 10:33:26;;;;;;;5.70;3.53;;;;;;;17.14;41.16;95257.03;4999929;28;20101;-75
2022/04/30 10:36:01;;;;;;;4.50;4.20;;;;;;;17.33;40.47;95247.56;5011605;28;20494;-74
2022/04/30 10:38:27;;;;;;;8.77;3.63;;;;;;;17.71;39.70;95245.47;5000514;28;20092;-77
2022/04/30 10:40:56;;;;;;;4.70;4.30;;;;;;;17.96;39.59;95247.25;4982953;28;20030;-75
2022/04/30 10:43:31;;;;;;;3.97;3.67;;;;;;;17.76;39.71;95252.56;4998101;28;20034;-75
2022/04/30 10:45:56;;;;;;;4.63;4.22;;;;;;;17.73;40.10;95238.09;5000133;28;20038;-75
2022/04/30 10:48:22;;;;;;;8.18;4.30;;;;;;;17.91;39.37;95229.66;4981213;28;20121;-75
2022/04/30 10:50:51;;;;;;;4.60;3.50;;;;;;;17.98;39.75;95235.41;4982228;28;20030;-74
2022/04/30 10:53:16;;;;;;;4.88;3.97;;;;;;;18.17;39.33;95242.72;4983259;28;20038;-75
2022/04/30 10:55:42;;;;;;;4.10;3.80;;;;;;;17.94;39.97;95244.13;4981033;28;20056;-74
2022/04/30 10:58:07;;;;;;;7.07;3.85;;;;;;;18.02;39.37;95246.19;4998241;28;20068;-75
2022/04/30 11:00:33;;;;;;;4.18;3.78;;;;;;;18.25;38.56;95239.56;4982203;28;20045;-77
2022/04/30 11:03:09;;;;;;;5.00;4.55;;;;;;;17.59;40.17;95240.47;4996907;28;20420;-76
2022/04/30 11:05:34;;;;;;;4.38;3.97;;;;;;;17.45;40.69;95241.25;4998735;28;20092;-76
2022/04/30 11:08:01;;;;;;;4.50;4.10;;;;;;;17.57;40.30;95229.44;4999458;28;20030;-76
2022/04/30 11:10:26;;;;;;;5.18;4.55;;;;;;;17.87;39.74;95243.59;4983781;28;20061;-77
2022/04/30 11:13:05;;;;;;;3.75;3.45;;;;;;;17.83;39.59;95243.34;5001472;28;20058;-76
2022/04/30 11:15:31;;;;;;;3.78;3.53;;;;;;;17.98;39.07;95230.16;4981806;28;20026;-76
2022/04/30 11:17:57;;;;;;;9.75;4.88;;;;;;;18.07;38.86;95232.25;4982424;28;20034;-76
2022/04/30 11:20:23;;;;;;;3.97;3.58;;;;;;;18.24;38.08;95232.72;5000794;28;20034;-80
2022/04/30 11:22:56;;;;;;;3.95;3.60;;;;;;;18.16;38.12;95235.88;4998086;28;20079;-75
2022/04/30 11:25:23;;;;;;;3.10;2.90;;;;;;;18.09;39.08;95238.03;4987880;28;20437;-75
2022/04/30 11:27:55;;;;;;;5.40;3.38;;;;;;;17.86;39.31;95227.03;5064218;23;20041;-75
2022/04/30 11:30:21;;;;;;;3.40;3.10;;;;;;;17.78;39.53;95230.22;4995768;28;20109;-75
2022/04/30 11:32:47;;;;;;;3.15;2.95;;;;;;;17.59;40.15;95229.94;5011540;28;20087;-75
2022/04/30 11:35:16;;;;;;;3.33;3.13;;;;;;;17.35;40.59;95224.44;5011270;28;20029;-77
2022/04/30 11:37:42;;;;;;;3.60;3.40;;;;;;;17.32;40.62;95222.34;5012019;28;20047;-76
2022/04/30 11:40:09;;;;;;;3.80;3.28;;;;;;;17.18;40.49;95221.28;5011295;28;20465;-77
2022/04/30 11:42:34;;;;;;;5.82;3.35;;;;;;;17.24;41.21;95225.47;4995019;28;20029;-75
2022/04/30 11:44:59;;;;;;;5.75;3.30;;;;;;;17.48;40.59;95217.06;5027584;28;20512;-76
2022/04/30 11:47:28;;;;;;;4.00;3.70;;;;;;;17.49;40.34;95216.81;5025771;28;20026;-76
2022/04/30 11:50:37;;;;;;;4.10;3.80;;;;;;;17.32;40.62;95226.81;4994348;28;20028;-76
2022/04/30 11:53:20;;;;;;;3.88;3.58;;;;;;;17.49;40.44;95218.66;5026737;28;20154;-77
2022/04/30 11:55:59;;;;;;;4.00;3.70;;;;;;;17.65;40.06;95218.34;5008387;28;20413;-76
2022/04/30 11:59:06;;;;;;;5.93;2.97;;;;;;;17.88;39.75;95219.66;4988549;28;20116;-76
2022/04/30 12:01:48;;;;;;;3.92;3.63;;;;;;;17.76;39.88;95206.00;4992555;28;20512;-76
2022/04/30 12:04:52;;;;;;;3.05;2.75;;;;;;;17.56;39.99;95211.25;5000131;28;20061;-76
2022/04/30 12:07:57;;;;;;;5.57;3.53;;;;;;;17.71;39.56;95203.38;5025701;28;20053;-76